sensor_id;sensor_type;location;lat;lon;timestamp;temperature;humidity
71879;DHT22;59755;43.834;4.364;2023-02-15T00:00:27;8.20;74.40
71879;DHT22;59755;43.834;4.364;2023-02-15T00:02:52;8.20;73.90
71879;DHT22;59755;43.834;4.364;2023-02-15T00:05:18;8.20;73.60
71879;DHT22;59755;43.834;4.364;2023-02-15T00:07:43;8.40;73.00
71879;DHT22;59755;43.834;4.364;2023-02-15T00:10:09;8.30;72.80
71879;DHT22;59755;43.834;4.364;2023-02-15T00:12:36;8.20;73.50
71879;DHT22;59755;43.834;4.364;2023-02-15T00:15:02;8.20;73.80
71879;DHT22;59755;43.834;4.364;2023-02-15T00:17:28;8.20;74.10
71879;DHT22;59755;43.834;4.364;2023-02-15T00:19:53;8.10;74.50
71879;DHT22;59755;43.834;4.364;2023-02-15T00:22:19;8.20;74.00
71879;DHT22;59755;43.834;4.364;2023-02-15T00:24:45;8.20;74.10
71879;DHT22;59755;43.834;4.364;2023-02-15T00:27:10;8.20;74.20
71879;DHT22;59755;43.834;4.364;2023-02-15T00:29:36;8.30;73.80
71879;DHT22;59755;43.834;4.364;2023-02-15T00:32:02;8.30;73.60
71879;DHT22;59755;43.834;4.364;2023-02-15T00:34:27;8.30;73.20
71879;DHT22;59755;43.834;4.364;2023-02-15T00:36:53;8.40;73.40
71879;DHT22;59755;43.834;4.364;2023-02-15T00:39:19;8.40;73.40
71879;DHT22;59755;43.834;4.364;2023-02-15T00:41:45;8.40;73.60
71879;DHT22;59755;43.834;4.364;2023-02-15T00:44:11;8.40;73.30
71879;DHT22;59755;43.834;4.364;2023-02-15T00:46:37;8.30;74.00
71879;DHT22;59755;43.834;4.364;2023-02-15T00:49:03;8.30;73.90
71879;DHT22;59755;43.834;4.364;2023-02-15T00:51:29;8.40;73.40
71879;DHT22;59755;43.834;4.364;2023-02-15T00:53:55;8.40;73.20
71879;DHT22;59755;43.834;4.364;2023-02-15T00:56:21;8.40;73.40
71879;DHT22;59755;43.834;4.364;2023-02-15T00:58:46;8.40;73.60
71879;DHT22;59755;43.834;4.364;2023-02-15T01:01:13;8.40;73.20
71879;DHT22;59755;43.834;4.364;2023-02-15T01:03:39;8.30;73.40
71879;DHT22;59755;43.834;4.364;2023-02-15T01:06:06;8.20;73.20
71879;DHT22;59755;43.834;4.364;2023-02-15T01:08:32;8.10;73.30
71879;DHT22;59755;43.834;4.364;2023-02-15T01:11:03;8.00;73.80
71879;DHT22;59755;43.834;4.364;2023-02-15T01:13:28;8.00;74.20
71879;DHT22;59755;43.834;4.364;2023-02-15T01:15:54;8.00;73.90
71879;DHT22;59755;43.834;4.364;2023-02-15T01:18:20;7.90;74.30
71879;DHT22;59755;43.834;4.364;2023-02-15T01:20:46;7.90;74.50
71879;DHT22;59755;43.834;4.364;2023-02-15T01:23:12;7.90;74.80
71879;DHT22;59755;43.834;4.364;2023-02-15T01:25:38;7.90;74.70
71879;DHT22;59755;43.834;4.364;2023-02-15T01:28:04;8.00;74.60
71879;DHT22;59755;43.834;4.364;2023-02-15T01:30:30;7.90;75.00
71879;DHT22;59755;43.834;4.364;2023-02-15T01:32:55;8.00;74.80
71879;DHT22;59755;43.834;4.364;2023-02-15T01:35:21;8.00;74.90
71879;DHT22;59755;43.834;4.364;2023-02-15T01:37:46;8.00;75.20
71879;DHT22;59755;43.834;4.364;2023-02-15T01:40:13;8.10;75.30
71879;DHT22;59755;43.834;4.364;2023-02-15T01:42:39;8.20;74.60
71879;DHT22;59755;43.834;4.364;2023-02-15T01:45:50;8.30;74.90
71879;DHT22;59755;43.834;4.364;2023-02-15T01:50:27;8.30;74.70
71879;DHT22;59755;43.834;4.364;2023-02-15T01:55:20;8.40;75.50
71879;DHT22;59755;43.834;4.364;2023-02-15T01:57:47;8.50;74.60
71879;DHT22;59755;43.834;4.364;2023-02-15T02:00:13;8.40;75.00
71879;DHT22;59755;43.834;4.364;2023-02-15T02:02:40;8.50;75.50
71879;DHT22;59755;43.834;4.364;2023-02-15T02:05:05;8.50;75.30
71879;DHT22;59755;43.834;4.364;2023-02-15T02:07:33;8.50;75.60
71879;DHT22;59755;43.834;4.364;2023-02-15T02:09:59;8.40;75.10
71879;DHT22;59755;43.834;4.364;2023-02-15T02:12:25;8.50;75.80
71879;DHT22;59755;43.834;4.364;2023-02-15T02:14:51;8.60;75.60
71879;DHT22;59755;43.834;4.364;2023-02-15T02:20:15;8.50;75.50
71879;DHT22;59755;43.834;4.364;2023-02-15T02:30:20;8.60;75.50
71879;DHT22;59755;43.834;4.364;2023-02-15T02:40:25;8.70;76.00
71879;DHT22;59755;43.834;4.364;2023-02-15T02:43:29;8.60;76.30
71879;DHT22;59755;43.834;4.364;2023-02-15T02:45:50;8.60;76.60
71879;DHT22;59755;43.834;4.364;2023-02-15T02:48:22;8.70;76.70
71879;DHT22;59755;43.834;4.364;2023-02-15T02:50:49;8.70;76.70
71879;DHT22;59755;43.834;4.364;2023-02-15T02:53:15;8.70;76.60
71879;DHT22;59755;43.834;4.364;2023-02-15T02:55:45;8.70;76.90
71879;DHT22;59755;43.834;4.364;2023-02-15T02:58:16;8.70;76.40
71879;DHT22;59755;43.834;4.364;2023-02-15T03:00:48;8.60;75.40
71879;DHT22;59755;43.834;4.364;2023-02-15T03:03:34;8.50;75.60
71879;DHT22;59755;43.834;4.364;2023-02-15T03:06:03;8.50;76.00
71879;DHT22;59755;43.834;4.364;2023-02-15T03:08:33;8.50;76.40
71879;DHT22;59755;43.834;4.364;2023-02-15T03:11:02;8.60;76.20
71879;DHT22;59755;43.834;4.364;2023-02-15T03:13:28;8.60;75.80
71879;DHT22;59755;43.834;4.364;2023-02-15T03:15:54;8.60;76.20
71879;DHT22;59755;43.834;4.364;2023-02-15T03:18:41;8.70;76.40
71879;DHT22;59755;43.834;4.364;2023-02-15T03:21:08;8.70;76.50
71879;DHT22;59755;43.834;4.364;2023-02-15T03:23:34;8.70;76.50
71879;DHT22;59755;43.834;4.364;2023-02-15T03:26:03;8.70;76.70
71879;DHT22;59755;43.834;4.364;2023-02-15T03:28:34;8.70;76.30
71879;DHT22;59755;43.834;4.364;2023-02-15T03:31:01;8.80;76.10
71879;DHT22;59755;43.834;4.364;2023-02-15T03:33:28;8.70;76.10
71879;DHT22;59755;43.834;4.364;2023-02-15T03:38:25;8.70;77.10
71879;DHT22;59755;43.834;4.364;2023-02-15T03:40:52;8.70;76.70
71879;DHT22;59755;43.834;4.364;2023-02-15T03:46:17;8.70;76.80
71879;DHT22;59755;43.834;4.364;2023-02-15T03:48:45;8.70;77.30
71879;DHT22;59755;43.834;4.364;2023-02-15T03:51:14;8.60;76.30
71879;DHT22;59755;43.834;4.364;2023-02-15T03:56:28;8.60;77.60
71879;DHT22;59755;43.834;4.364;2023-02-15T03:58:54;8.70;76.80
71879;DHT22;59755;43.834;4.364;2023-02-15T04:01:40;8.70;77.00
71879;DHT22;59755;43.834;4.364;2023-02-15T04:04:23;8.60;76.50
71879;DHT22;59755;43.834;4.364;2023-02-15T04:06:50;8.50;76.80
71879;DHT22;59755;43.834;4.364;2023-02-15T04:09:15;8.40;76.90
71879;DHT22;59755;43.834;4.364;2023-02-15T04:12:00;8.30;76.70
71879;DHT22;59755;43.834;4.364;2023-02-15T04:14:25;8.40;76.30
71879;DHT22;59755;43.834;4.364;2023-02-15T04:17:10;8.40;75.90
71879;DHT22;59755;43.834;4.364;2023-02-15T04:19:35;8.30;76.70
71879;DHT22;59755;43.834;4.364;2023-02-15T04:22:19;8.30;77.00
71879;DHT22;59755;43.834;4.364;2023-02-15T04:25:04;8.30;77.00
71879;DHT22;59755;43.834;4.364;2023-02-15T04:27:48;8.20;77.40
71879;DHT22;59755;43.834;4.364;2023-02-15T04:30:15;8.20;77.30
71879;DHT22;59755;43.834;4.364;2023-02-15T04:32:41;8.20;77.40
71879;DHT22;59755;43.834;4.364;2023-02-15T04:35:07;8.20;77.60
71879;DHT22;59755;43.834;4.364;2023-02-15T04:37:33;8.20;77.60
71879;DHT22;59755;43.834;4.364;2023-02-15T04:39:58;8.30;77.40
71879;DHT22;59755;43.834;4.364;2023-02-15T04:42:24;8.40;76.90
71879;DHT22;59755;43.834;4.364;2023-02-15T04:44:50;8.40;76.50
71879;DHT22;59755;43.834;4.364;2023-02-15T04:47:16;8.50;76.60
71879;DHT22;59755;43.834;4.364;2023-02-15T04:49:42;8.50;76.70
71879;DHT22;59755;43.834;4.364;2023-02-15T04:52:07;8.60;76.30
71879;DHT22;59755;43.834;4.364;2023-02-15T04:54:33;8.60;76.10
71879;DHT22;59755;43.834;4.364;2023-02-15T04:56:58;8.60;76.40
71879;DHT22;59755;43.834;4.364;2023-02-15T04:59:24;8.60;76.60
71879;DHT22;59755;43.834;4.364;2023-02-15T05:01:50;8.60;76.60
71879;DHT22;59755;43.834;4.364;2023-02-15T05:04:15;8.70;76.60
71879;DHT22;59755;43.834;4.364;2023-02-15T05:06:41;8.70;76.30
71879;DHT22;59755;43.834;4.364;2023-02-15T05:09:06;8.70;76.10
71879;DHT22;59755;43.834;4.364;2023-02-15T05:11:32;8.60;76.40
71879;DHT22;59755;43.834;4.364;2023-02-15T05:13:58;8.60;76.50
71879;DHT22;59755;43.834;4.364;2023-02-15T05:16:23;8.60;77.20
71879;DHT22;59755;43.834;4.364;2023-02-15T05:18:49;8.70;77.10
71879;DHT22;59755;43.834;4.364;2023-02-15T05:21:14;8.70;77.20
71879;DHT22;59755;43.834;4.364;2023-02-15T05:23:41;8.70;77.50
71879;DHT22;59755;43.834;4.364;2023-02-15T05:26:10;8.70;77.30
71879;DHT22;59755;43.834;4.364;2023-02-15T05:28:55;8.80;77.10
71879;DHT22;59755;43.834;4.364;2023-02-15T05:31:20;8.70;77.50
71879;DHT22;59755;43.834;4.364;2023-02-15T05:33:46;8.80;77.30
71879;DHT22;59755;43.834;4.364;2023-02-15T05:36:12;8.80;77.00
71879;DHT22;59755;43.834;4.364;2023-02-15T05:38:37;8.80;77.00
71879;DHT22;59755;43.834;4.364;2023-02-15T05:41:03;8.90;76.70
71879;DHT22;59755;43.834;4.364;2023-02-15T05:43:29;8.90;76.60
71879;DHT22;59755;43.834;4.364;2023-02-15T05:45:55;8.90;76.60
71879;DHT22;59755;43.834;4.364;2023-02-15T05:48:22;9.00;76.40
71879;DHT22;59755;43.834;4.364;2023-02-15T05:50:56;9.10;76.10
71879;DHT22;59755;43.834;4.364;2023-02-15T05:53:22;9.00;76.20
71879;DHT22;59755;43.834;4.364;2023-02-15T05:55:47;9.00;76.30
71879;DHT22;59755;43.834;4.364;2023-02-15T05:58:13;9.00;76.10
71879;DHT22;59755;43.834;4.364;2023-02-15T06:00:38;9.00;76.20
71879;DHT22;59755;43.834;4.364;2023-02-15T06:03:04;8.90;76.50
71879;DHT22;59755;43.834;4.364;2023-02-15T06:05:30;8.90;76.40
71879;DHT22;59755;43.834;4.364;2023-02-15T06:07:55;8.90;76.50
71879;DHT22;59755;43.834;4.364;2023-02-15T06:10:21;8.90;76.60
71879;DHT22;59755;43.834;4.364;2023-02-15T06:12:46;8.90;76.60
71879;DHT22;59755;43.834;4.364;2023-02-15T06:15:12;8.90;76.40
71879;DHT22;59755;43.834;4.364;2023-02-15T06:17:40;8.90;76.60
71879;DHT22;59755;43.834;4.364;2023-02-15T06:20:06;8.90;76.70
71879;DHT22;59755;43.834;4.364;2023-02-15T06:22:32;8.90;76.50
71879;DHT22;59755;43.834;4.364;2023-02-15T06:24:57;8.90;76.40
71879;DHT22;59755;43.834;4.364;2023-02-15T06:27:23;8.90;76.20
71879;DHT22;59755;43.834;4.364;2023-02-15T06:29:48;8.90;75.60
71879;DHT22;59755;43.834;4.364;2023-02-15T06:32:14;8.90;75.80
71879;DHT22;59755;43.834;4.364;2023-02-15T06:34:40;8.90;75.60
71879;DHT22;59755;43.834;4.364;2023-02-15T06:37:05;8.80;75.70
71879;DHT22;59755;43.834;4.364;2023-02-15T06:39:33;8.80;76.00
71879;DHT22;59755;43.834;4.364;2023-02-15T06:41:58;8.80;76.70
71879;DHT22;59755;43.834;4.364;2023-02-15T06:44:24;8.80;76.90
71879;DHT22;59755;43.834;4.364;2023-02-15T06:46:50;8.80;76.70
71879;DHT22;59755;43.834;4.364;2023-02-15T06:49:15;8.80;75.90
71879;DHT22;59755;43.834;4.364;2023-02-15T06:51:41;8.70;76.30
71879;DHT22;59755;43.834;4.364;2023-02-15T06:54:06;8.70;77.40
71879;DHT22;59755;43.834;4.364;2023-02-15T06:56:32;8.70;77.40
71879;DHT22;59755;43.834;4.364;2023-02-15T06:58:57;8.80;77.10
71879;DHT22;59755;43.834;4.364;2023-02-15T07:01:23;8.80;77.10
71879;DHT22;59755;43.834;4.364;2023-02-15T07:03:49;8.90;76.90
71879;DHT22;59755;43.834;4.364;2023-02-15T07:06:15;8.80;76.60
71879;DHT22;59755;43.834;4.364;2023-02-15T07:08:40;8.70;76.70
71879;DHT22;59755;43.834;4.364;2023-02-15T07:11:06;8.70;76.30
71879;DHT22;59755;43.834;4.364;2023-02-15T07:13:51;8.70;76.70
71879;DHT22;59755;43.834;4.364;2023-02-15T07:16:17;8.60;77.30
71879;DHT22;59755;43.834;4.364;2023-02-15T07:18:43;8.60;77.90
71879;DHT22;59755;43.834;4.364;2023-02-15T07:21:09;8.70;77.70
71879;DHT22;59755;43.834;4.364;2023-02-15T07:23:35;8.70;77.30
71879;DHT22;59755;43.834;4.364;2023-02-15T07:26:00;8.80;77.20
71879;DHT22;59755;43.834;4.364;2023-02-15T07:28:27;8.80;77.00
71879;DHT22;59755;43.834;4.364;2023-02-15T07:30:52;8.70;77.60
71879;DHT22;59755;43.834;4.364;2023-02-15T07:33:18;8.80;77.10
71879;DHT22;59755;43.834;4.364;2023-02-15T07:35:53;8.80;77.10
71879;DHT22;59755;43.834;4.364;2023-02-15T07:38:19;8.80;77.20
71879;DHT22;59755;43.834;4.364;2023-02-15T07:40:45;8.70;77.70
71879;DHT22;59755;43.834;4.364;2023-02-15T07:43:11;8.70;77.80
71879;DHT22;59755;43.834;4.364;2023-02-15T07:45:37;8.80;77.30
71879;DHT22;59755;43.834;4.364;2023-02-15T07:48:03;8.80;77.50
71879;DHT22;59755;43.834;4.364;2023-02-15T07:50:29;8.80;77.30
71879;DHT22;59755;43.834;4.364;2023-02-15T07:52:54;8.80;77.10
71879;DHT22;59755;43.834;4.364;2023-02-15T07:55:20;8.80;77.20
71879;DHT22;59755;43.834;4.364;2023-02-15T07:57:46;8.70;77.70
71879;DHT22;59755;43.834;4.364;2023-02-15T08:00:12;8.70;77.70
71879;DHT22;59755;43.834;4.364;2023-02-15T08:02:38;8.80;77.30
71879;DHT22;59755;43.834;4.364;2023-02-15T08:05:04;8.80;77.10
71879;DHT22;59755;43.834;4.364;2023-02-15T08:07:30;8.80;77.30
71879;DHT22;59755;43.834;4.364;2023-02-15T08:09:55;8.80;77.00
71879;DHT22;59755;43.834;4.364;2023-02-15T08:12:21;8.90;76.90
71879;DHT22;59755;43.834;4.364;2023-02-15T08:14:46;9.00;76.50
71879;DHT22;59755;43.834;4.364;2023-02-15T08:17:12;9.10;76.10
71879;DHT22;59755;43.834;4.364;2023-02-15T08:19:38;9.20;75.70
71879;DHT22;59755;43.834;4.364;2023-02-15T08:22:04;9.20;75.60
71879;DHT22;59755;43.834;4.364;2023-02-15T08:24:33;9.30;75.30
71879;DHT22;59755;43.834;4.364;2023-02-15T08:26:59;9.30;75.20
71879;DHT22;59755;43.834;4.364;2023-02-15T08:29:28;9.30;75.10
71879;DHT22;59755;43.834;4.364;2023-02-15T08:31:55;9.40;74.80
71879;DHT22;59755;43.834;4.364;2023-02-15T08:34:23;9.60;74.30
71879;DHT22;59755;43.834;4.364;2023-02-15T08:36:49;9.60;74.00
71879;DHT22;59755;43.834;4.364;2023-02-15T08:39:15;9.80;73.20
71879;DHT22;59755;43.834;4.364;2023-02-15T08:41:41;9.90;72.70
71879;DHT22;59755;43.834;4.364;2023-02-15T08:44:07;10.00;72.30
71879;DHT22;59755;43.834;4.364;2023-02-15T08:46:35;10.20;71.50
71879;DHT22;59755;43.834;4.364;2023-02-15T08:49:01;10.40;71.00
71879;DHT22;59755;43.834;4.364;2023-02-15T08:51:28;10.60;70.00
71879;DHT22;59755;43.834;4.364;2023-02-15T08:53:55;10.70;69.60
71879;DHT22;59755;43.834;4.364;2023-02-15T08:56:22;10.60;69.80
71879;DHT22;59755;43.834;4.364;2023-02-15T08:58:48;10.70;69.80
71879;DHT22;59755;43.834;4.364;2023-02-15T09:01:14;10.70;69.60
71879;DHT22;59755;43.834;4.364;2023-02-15T09:03:44;10.70;69.40
71879;DHT22;59755;43.834;4.364;2023-02-15T09:06:10;10.60;69.80
71879;DHT22;59755;43.834;4.364;2023-02-15T09:08:36;10.60;70.00
71879;DHT22;59755;43.834;4.364;2023-02-15T09:11:05;10.60;69.50
71879;DHT22;59755;43.834;4.364;2023-02-15T09:13:31;10.80;69.20
71879;DHT22;59755;43.834;4.364;2023-02-15T09:16:01;10.90;68.70
71879;DHT22;59755;43.834;4.364;2023-02-15T09:18:27;11.00;68.50
71879;DHT22;59755;43.834;4.364;2023-02-15T09:20:53;11.30;67.40
71879;DHT22;59755;43.834;4.364;2023-02-15T09:23:20;11.40;67.00
71879;DHT22;59755;43.834;4.364;2023-02-15T09:25:46;11.50;66.30
71879;DHT22;59755;43.834;4.364;2023-02-15T09:28:11;11.40;66.20
71879;DHT22;59755;43.834;4.364;2023-02-15T09:30:37;11.40;66.40
71879;DHT22;59755;43.834;4.364;2023-02-15T09:33:03;11.50;65.90
71879;DHT22;59755;43.834;4.364;2023-02-15T09:35:28;11.50;65.40
71879;DHT22;59755;43.834;4.364;2023-02-15T09:37:54;11.50;65.60
71879;DHT22;59755;43.834;4.364;2023-02-15T09:40:19;11.60;64.80
71879;DHT22;59755;43.834;4.364;2023-02-15T09:45:30;11.50;64.80
71879;DHT22;59755;43.834;4.364;2023-02-15T09:55:44;12.20;62.50
71879;DHT22;59755;43.834;4.364;2023-02-15T09:58:14;12.50;61.70
71879;DHT22;59755;43.834;4.364;2023-02-15T10:00:46;12.60;61.00
71879;DHT22;59755;43.834;4.364;2023-02-15T10:08:15;13.20;58.20
71879;DHT22;59755;43.834;4.364;2023-02-15T10:16:42;13.20;58.00
71879;DHT22;59755;43.834;4.364;2023-02-15T10:19:14;13.10;58.10
71879;DHT22;59755;43.834;4.364;2023-02-15T10:24:21;12.70;58.70
71879;DHT22;59755;43.834;4.364;2023-02-15T10:26:48;12.50;59.20
71879;DHT22;59755;43.834;4.364;2023-02-15T10:32:05;12.60;59.20
71879;DHT22;59755;43.834;4.364;2023-02-15T10:34:39;12.80;59.50
71879;DHT22;59755;43.834;4.364;2023-02-15T10:49:47;12.50;59.30
71879;DHT22;59755;43.834;4.364;2023-02-15T11:02:20;13.00;57.60
71879;DHT22;59755;43.834;4.364;2023-02-15T11:07:25;13.60;55.80
71879;DHT22;59755;43.834;4.364;2023-02-15T11:09:56;13.70;55.50
71879;DHT22;59755;43.834;4.364;2023-02-15T11:12:25;13.80;55.10
71879;DHT22;59755;43.834;4.364;2023-02-15T11:15:01;13.80;55.50
71879;DHT22;59755;43.834;4.364;2023-02-15T11:17:33;13.70;55.70
71879;DHT22;59755;43.834;4.364;2023-02-15T11:22:28;13.90;55.10
71879;DHT22;59755;43.834;4.364;2023-02-15T11:24:55;13.90;54.70
71879;DHT22;59755;43.834;4.364;2023-02-15T11:27:24;13.80;55.10
71879;DHT22;59755;43.834;4.364;2023-02-15T11:29:56;14.00;54.40
71879;DHT22;59755;43.834;4.364;2023-02-15T11:32:24;14.10;54.40
71879;DHT22;59755;43.834;4.364;2023-02-15T11:37:58;14.70;52.80
71879;DHT22;59755;43.834;4.364;2023-02-15T11:40:22;15.10;52.10
71879;DHT22;59755;43.834;4.364;2023-02-15T11:42:49;15.80;50.10
71879;DHT22;59755;43.834;4.364;2023-02-15T11:52:34;15.60;50.20
71879;DHT22;59755;43.834;4.364;2023-02-15T11:55:00;14.80;51.60
71879;DHT22;59755;43.834;4.364;2023-02-15T11:59:53;14.70;51.80
71879;DHT22;59755;43.834;4.364;2023-02-15T12:02:21;14.50;52.40
71879;DHT22;59755;43.834;4.364;2023-02-15T12:04:49;14.30;52.80
71879;DHT22;59755;43.834;4.364;2023-02-15T12:07:33;14.40;52.90
71879;DHT22;59755;43.834;4.364;2023-02-15T12:12:39;14.70;52.30
71879;DHT22;59755;43.834;4.364;2023-02-15T12:15:08;14.70;51.70
71879;DHT22;59755;43.834;4.364;2023-02-15T12:17:41;15.80;49.30
71879;DHT22;59755;43.834;4.364;2023-02-15T12:22:39;16.80;46.70
71879;DHT22;59755;43.834;4.364;2023-02-15T12:25:21;17.10;46.20
71879;DHT22;59755;43.834;4.364;2023-02-15T12:27:48;18.00;44.70
71879;DHT22;59755;43.834;4.364;2023-02-15T12:30:34;19.00;42.90
71879;DHT22;59755;43.834;4.364;2023-02-15T12:35:38;19.90;40.50
71879;DHT22;59755;43.834;4.364;2023-02-15T12:40:36;19.70;40.80
71879;DHT22;59755;43.834;4.364;2023-02-15T12:43:02;20.30;39.50
71879;DHT22;59755;43.834;4.364;2023-02-15T12:45:34;20.70;39.10
71879;DHT22;59755;43.834;4.364;2023-02-15T12:50:40;20.10;40.10
71879;DHT22;59755;43.834;4.364;2023-02-15T12:53:17;20.20;39.90
71879;DHT22;59755;43.834;4.364;2023-02-15T12:55:56;20.70;39.00
71879;DHT22;59755;43.834;4.364;2023-02-15T12:58:22;20.60;39.00
71879;DHT22;59755;43.834;4.364;2023-02-15T13:03:34;20.40;39.30
71879;DHT22;59755;43.834;4.364;2023-02-15T13:06:00;19.90;39.90
71879;DHT22;59755;43.834;4.364;2023-02-15T13:08:27;18.80;41.40
71879;DHT22;59755;43.834;4.364;2023-02-15T13:10:54;18.30;43.00
71879;DHT22;59755;43.834;4.364;2023-02-15T13:13:22;17.70;44.10
71879;DHT22;59755;43.834;4.364;2023-02-15T13:15:53;17.60;44.50
71879;DHT22;59755;43.834;4.364;2023-02-15T13:18:33;18.50;42.90
71879;DHT22;59755;43.834;4.364;2023-02-15T13:21:09;18.80;42.20
71879;DHT22;59755;43.834;4.364;2023-02-15T13:23:35;19.10;41.20
71879;DHT22;59755;43.834;4.364;2023-02-15T13:26:03;19.10;41.50
71879;DHT22;59755;43.834;4.364;2023-02-15T13:28:36;19.60;40.40
71879;DHT22;59755;43.834;4.364;2023-02-15T13:31:03;19.60;40.60
71879;DHT22;59755;43.834;4.364;2023-02-15T13:33:31;18.80;41.90
71879;DHT22;59755;43.834;4.364;2023-02-15T13:41:03;18.40;42.10
71879;DHT22;59755;43.834;4.364;2023-02-15T13:48:44;19.80;39.70
71879;DHT22;59755;43.834;4.364;2023-02-15T13:51:21;20.40;38.90
71879;DHT22;59755;43.834;4.364;2023-02-15T13:59:07;20.80;38.10
71879;DHT22;59755;43.834;4.364;2023-02-15T14:04:36;20.70;38.70
71879;DHT22;59755;43.834;4.364;2023-02-15T14:09:38;20.60;38.90
71879;DHT22;59755;43.834;4.364;2023-02-15T14:12:14;21.00;38.30
71879;DHT22;59755;43.834;4.364;2023-02-15T14:14:49;20.90;38.10
71879;DHT22;59755;43.834;4.364;2023-02-15T14:17:23;20.70;38.60
71879;DHT22;59755;43.834;4.364;2023-02-15T14:19:54;20.10;39.60
71879;DHT22;59755;43.834;4.364;2023-02-15T14:22:34;20.40;39.20
71879;DHT22;59755;43.834;4.364;2023-02-15T14:30:27;20.90;38.30
71879;DHT22;59755;43.834;4.364;2023-02-15T14:32:54;20.60;39.10
71879;DHT22;59755;43.834;4.364;2023-02-15T14:35:22;20.60;39.10
71879;DHT22;59755;43.834;4.364;2023-02-15T14:37:51;20.00;39.60
71879;DHT22;59755;43.834;4.364;2023-02-15T14:40:36;19.60;40.50
71879;DHT22;59755;43.834;4.364;2023-02-15T14:45:54;19.40;41.00
71879;DHT22;59755;43.834;4.364;2023-02-15T14:48:42;19.00;42.10
71879;DHT22;59755;43.834;4.364;2023-02-15T14:51:06;18.80;42.20
71879;DHT22;59755;43.834;4.364;2023-02-15T14:53:33;18.50;42.70
71879;DHT22;59755;43.834;4.364;2023-02-15T14:58:54;18.10;43.60
71879;DHT22;59755;43.834;4.364;2023-02-15T15:01:40;18.20;43.40
71879;DHT22;59755;43.834;4.364;2023-02-15T15:04:10;18.20;43.50
71879;DHT22;59755;43.834;4.364;2023-02-15T15:06:39;18.20;43.50
71879;DHT22;59755;43.834;4.364;2023-02-15T15:11:39;17.80;44.50
71879;DHT22;59755;43.834;4.364;2023-02-15T15:14:07;17.60;45.20
71879;DHT22;59755;43.834;4.364;2023-02-15T15:19:03;16.50;46.60
71879;DHT22;59755;43.834;4.364;2023-02-15T15:22:02;16.10;47.80
71879;DHT22;59755;43.834;4.364;2023-02-15T15:29:48;16.30;47.50
71879;DHT22;59755;43.834;4.364;2023-02-15T15:32:14;15.80;48.50
71879;DHT22;59755;43.834;4.364;2023-02-15T15:47:58;15.20;50.30
71879;DHT22;59755;43.834;4.364;2023-02-15T15:50:25;15.10;50.50
71879;DHT22;59755;43.834;4.364;2023-02-15T15:52:55;14.90;51.10
71879;DHT22;59755;43.834;4.364;2023-02-15T15:55:22;14.90;51.40
71879;DHT22;59755;43.834;4.364;2023-02-15T15:57:53;14.80;51.30
71879;DHT22;59755;43.834;4.364;2023-02-15T16:02:52;14.80;52.30
71879;DHT22;59755;43.834;4.364;2023-02-15T16:05:17;14.80;51.80
71879;DHT22;59755;43.834;4.364;2023-02-15T16:07:43;14.70;52.20
71879;DHT22;59755;43.834;4.364;2023-02-15T16:10:19;14.50;52.50
71879;DHT22;59755;43.834;4.364;2023-02-15T16:12:46;14.40;52.90
71879;DHT22;59755;43.834;4.364;2023-02-15T16:15:17;14.40;53.00
71879;DHT22;59755;43.834;4.364;2023-02-15T16:17:44;14.30;53.50
71879;DHT22;59755;43.834;4.364;2023-02-15T16:20:14;14.20;53.50
71879;DHT22;59755;43.834;4.364;2023-02-15T16:22:41;14.00;54.40
71879;DHT22;59755;43.834;4.364;2023-02-15T16:30:16;13.80;55.00
71879;DHT22;59755;43.834;4.364;2023-02-15T16:32:41;13.70;55.70
71879;DHT22;59755;43.834;4.364;2023-02-15T16:35:13;13.80;55.40
71879;DHT22;59755;43.834;4.364;2023-02-15T16:37:39;13.80;55.10
71879;DHT22;59755;43.834;4.364;2023-02-15T16:40:05;13.90;54.90
71879;DHT22;59755;43.834;4.364;2023-02-15T16:42:30;13.80;55.10
71879;DHT22;59755;43.834;4.364;2023-02-15T16:45:07;13.70;55.50
71879;DHT22;59755;43.834;4.364;2023-02-15T16:47:34;13.70;55.60
71879;DHT22;59755;43.834;4.364;2023-02-15T16:50:01;13.70;55.40
71879;DHT22;59755;43.834;4.364;2023-02-15T16:52:28;13.60;55.70
71879;DHT22;59755;43.834;4.364;2023-02-15T16:55:01;13.50;55.80
71879;DHT22;59755;43.834;4.364;2023-02-15T16:57:32;13.50;55.90
71879;DHT22;59755;43.834;4.364;2023-02-15T17:00:00;13.40;56.50
71879;DHT22;59755;43.834;4.364;2023-02-15T17:02:27;13.20;57.00
71879;DHT22;59755;43.834;4.364;2023-02-15T17:07:32;13.20;56.70
71879;DHT22;59755;43.834;4.364;2023-02-15T17:09:58;13.10;57.50
71879;DHT22;59755;43.834;4.364;2023-02-15T17:12:43;13.00;57.70
71879;DHT22;59755;43.834;4.364;2023-02-15T17:16:06;13.10;57.20
71879;DHT22;59755;43.834;4.364;2023-02-15T17:17:56;12.90;57.60
71879;DHT22;59755;43.834;4.364;2023-02-15T17:20:21;12.90;57.80
71879;DHT22;59755;43.834;4.364;2023-02-15T17:22:48;12.80;58.00
71879;DHT22;59755;43.834;4.364;2023-02-15T17:25:21;12.80;58.00
71879;DHT22;59755;43.834;4.364;2023-02-15T17:27:54;12.80;58.50
71879;DHT22;59755;43.834;4.364;2023-02-15T17:30:26;12.70;58.50
71879;DHT22;59755;43.834;4.364;2023-02-15T17:32:59;12.60;59.30
71879;DHT22;59755;43.834;4.364;2023-02-15T17:35:26;12.50;59.70
71879;DHT22;59755;43.834;4.364;2023-02-15T17:40:28;12.30;60.20
71879;DHT22;59755;43.834;4.364;2023-02-15T17:42:54;12.30;60.60
71879;DHT22;59755;43.834;4.364;2023-02-15T17:45:20;12.20;61.00
71879;DHT22;59755;43.834;4.364;2023-02-15T17:47:47;12.30;60.40
71879;DHT22;59755;43.834;4.364;2023-02-15T17:50:23;12.40;60.20
71879;DHT22;59755;43.834;4.364;2023-02-15T17:52:50;12.50;60.10
71879;DHT22;59755;43.834;4.364;2023-02-15T17:55:16;12.50;60.20
71879;DHT22;59755;43.834;4.364;2023-02-15T17:58:02;12.40;60.30
71879;DHT22;59755;43.834;4.364;2023-02-15T18:00:29;12.30;60.90
71879;DHT22;59755;43.834;4.364;2023-02-15T18:03:13;12.20;61.10
71879;DHT22;59755;43.834;4.364;2023-02-15T18:05:58;12.20;61.40
71879;DHT22;59755;43.834;4.364;2023-02-15T18:08:42;12.20;61.40
71879;DHT22;59755;43.834;4.364;2023-02-15T18:11:26;12.10;61.60
71879;DHT22;59755;43.834;4.364;2023-02-15T18:14:05;11.90;62.20
71879;DHT22;59755;43.834;4.364;2023-02-15T18:16:41;11.90;62.40
71879;DHT22;59755;43.834;4.364;2023-02-15T18:19:12;12.00;62.20
71879;DHT22;59755;43.834;4.364;2023-02-15T18:21:39;12.00;62.20
71879;DHT22;59755;43.834;4.364;2023-02-15T18:24:04;11.90;62.50
71879;DHT22;59755;43.834;4.364;2023-02-15T18:26:30;12.00;62.40
71879;DHT22;59755;43.834;4.364;2023-02-15T18:28:55;11.90;62.90
71879;DHT22;59755;43.834;4.364;2023-02-15T18:31:21;11.90;62.60
71879;DHT22;59755;43.834;4.364;2023-02-15T18:33:52;11.80;62.90
71879;DHT22;59755;43.834;4.364;2023-02-15T18:36:23;11.80;63.00
71879;DHT22;59755;43.834;4.364;2023-02-15T18:38:50;11.70;63.20
71879;DHT22;59755;43.834;4.364;2023-02-15T18:41:18;11.70;63.30
71879;DHT22;59755;43.834;4.364;2023-02-15T18:43:44;11.60;63.60
71879;DHT22;59755;43.834;4.364;2023-02-15T18:46:10;11.50;63.80
71879;DHT22;59755;43.834;4.364;2023-02-15T18:48:35;11.50;63.90
71879;DHT22;59755;43.834;4.364;2023-02-15T18:51:01;11.40;64.20